Rockrimmin Ridge, Pennsylvania
Current Conditions -  °F | °C
As of 12:53 AM on Wednesday 28 Jan 2015 (Local Time) from KLNS Reporting Station
Clear Clear  
Wind Chill:   Ceiling: Unl
Heat Index: 17°   Visibility: 10mi
Dew Point:   Wind: 15mph
Humidity: 54%   Direction: 320°NW
Pressure: 29.98"   Gusts: NA
Location:  40.0946°N, 76.1809°W
Report Text: KLNS 280553Z AUTO 32013KT 10SM CLR M08/M16 A2998 RMK AO2 SLP156 T10831161 11028 21083 51021
Loading
Personal Weather Stations






























Interactive Weather Map New forecast layout! Learn more

10-Day Weather Forecast

Advertisements
Track Severe Weather on mobile